Time;durP1;ratioP1;P1;durP2;ratioP2;P2;SDS_P1;SDS_P2;PMS_P1;PMS_P2;Temp;Humidity;BMP_temperature;BMP_pressure;BME280_temperature;BME280_humidity;BME280_pressure;Samples;Min_cycle;Max_cycle;Signal;HPM_P1;HPM_P2
2023/01/06 00:02:24;;;;;;;23.70;9.77;;;;;;;;;;5054893;28;20529;-77
2023/01/06 00:04:50;;;;;;;31.23;10.60;;;;;;;;;;5017320;28;20041;-76
2023/01/06 00:07:16;;;;;;;25.10;9.25;;;;;;;;;;5043838;28;20037;-76
2023/01/06 00:09:42;;;;;;;28.70;8.68;;;;;;;;;;5046108;28;20048;-76
2023/01/06 00:12:08;;;;;;;31.00;8.23;;;;;;;;;;5054113;28;20056;-76
2023/01/06 00:14:34;;;;;;;28.02;8.32;;;;;;;;;;5051140;28;20049;-76
2023/01/06 00:17:00;;;;;;;29.20;8.77;;;;;;;;;;5031730;28;20044;-76
2023/01/06 00:19:26;;;;;;;29.67;8.50;;;;;;;;;;5037893;28;20095;-76
2023/01/06 00:21:52;;;;;;;28.08;8.13;;;;;;;;;;5033820;28;20052;-76
2023/01/06 00:24:18;;;;;;;29.67;7.55;;;;;;;;;;5016110;28;20041;-76
2023/01/06 00:26:44;;;;;;;25.77;7.75;;;;;;;;;;5019979;28;20075;-76
2023/01/06 00:29:10;;;;;;;26.08;7.75;;;;;;;;;;5049122;28;20050;-76
2023/01/06 00:31:36;;;;;;;21.65;7.03;;;;;;;;;;5034214;28;20125;-76
2023/01/06 00:34:02;;;;;;;26.27;6.80;;;;;;;;;;5036839;28;20053;-76
2023/01/06 00:36:29;;;;;;;21.75;6.13;;;;;;;;;;5019548;28;20518;-76
2023/01/06 00:38:55;;;;;;;25.33;6.05;;;;;;;;;;5045161;28;20047;-76
2023/01/06 00:44:06;;;;;;;14.80;5.97;;;;;;;;;;5043104;28;20511;-76
2023/01/06 00:46:33;;;;;;;22.42;6.20;;;;;;;;;;5029856;28;20129;-76
2023/01/06 00:49:00;;;;;;;22.75;6.55;;;;;;;;;;5033599;28;20515;-76
2023/01/06 00:51:26;;;;;;;23.15;6.47;;;;;;;;;;5034047;28;20041;-76
2023/01/06 00:53:52;;;;;;;18.80;6.68;;;;;;;;;;5033802;28;20084;-76
2023/01/06 00:56:18;;;;;;;18.20;5.80;;;;;;;;;;5048145;28;20069;-76
2023/01/06 00:58:44;;;;;;;18.42;5.65;;;;;;;;;;5049648;28;20056;-76
2023/01/06 01:01:10;;;;;;;16.70;5.60;;;;;;;;;;5033608;28;20472;-75
2023/01/06 01:03:37;;;;;;;16.70;5.05;;;;;;;;;;5033562;28;20081;-75
2023/01/06 01:06:04;;;;;;;16.55;5.65;;;;;;;;;;5036190;28;20045;-75
2023/01/06 01:08:30;;;;;;;15.18;5.00;;;;;;;;;;5017811;28;20053;-76
2023/01/06 01:11:01;;;;;;;14.63;4.93;;;;;;;;;;5034228;28;20041;-76
2023/01/06 01:13:27;;;;;;;15.70;4.05;;;;;;;;;;5017819;28;20054;-76
2023/01/06 01:15:53;;;;;;;18.02;5.05;;;;;;;;;;5020361;28;20038;-76
2023/01/06 01:18:19;;;;;;;16.42;4.85;;;;;;;;;;5033022;28;20049;-76
2023/01/06 01:20:46;;;;;;;18.92;5.20;;;;;;;;;;5017709;28;20055;-76
2023/01/06 01:23:12;;;;;;;16.40;5.18;;;;;;;;;;5027917;28;20184;-76
2023/01/06 01:25:41;;;;;;;15.05;4.97;;;;;;;;;;5020489;28;20041;-76
2023/01/06 01:28:08;;;;;;;13.80;4.82;;;;;;;;;;5018845;28;20050;-76
2023/01/06 01:30:34;;;;;;;18.48;5.07;;;;;;;;;;5023720;28;20046;-75
2023/01/06 01:33:00;;;;;;;22.10;5.70;;;;;;;;;;5033224;28;20048;-75
2023/01/06 01:35:26;;;;;;;12.68;4.60;;;;;;;;;;5017305;28;20038;-76
2023/01/06 01:37:52;;;;;;;12.30;4.65;;;;;;;;;;5043102;28;20117;-76
2023/01/06 01:40:18;;;;;;;14.02;4.82;;;;;;;;;;5020958;28;20149;-76
2023/01/06 01:42:44;;;;;;;14.63;4.43;;;;;;;;;;5013845;28;20054;-76
2023/01/06 01:45:20;;;;;;;17.88;4.50;;;;;;;;;;5016022;28;20037;-76
2023/01/06 01:47:49;;;;;;;18.90;4.75;;;;;;;;;;5032217;28;20049;-76
2023/01/06 01:50:23;;;;;;;15.48;4.47;;;;;;;;;;5026275;28;20092;-76
2023/01/06 01:52:50;;;;;;;13.18;4.28;;;;;;;;;;5025883;28;20041;-76
2023/01/06 01:55:16;;;;;;;15.70;4.30;;;;;;;;;;5021825;28;20495;-76
2023/01/06 01:57:50;;;;;;;14.30;5.10;;;;;;;;;;5024663;28;20049;-76
2023/01/06 02:00:17;;;;;;;14.77;3.88;;;;;;;;;;5025074;28;20041;-76
2023/01/06 02:02:43;;;;;;;14.43;4.50;;;;;;;;;;5029865;28;20096;-76
2023/01/06 02:05:10;;;;;;;12.25;3.45;;;;;;;;;;5036603;28;20476;-76
2023/01/06 02:07:36;;;;;;;11.95;3.75;;;;;;;;;;5025074;28;20069;-76
2023/01/06 02:10:14;;;;;;;12.50;3.92;;;;;;;;;;5032572;28;20063;-76
2023/01/06 02:12:40;;;;;;;13.75;3.40;;;;;;;;;;5036192;28;20064;-80
2023/01/06 02:15:36;;;;;;;10.93;3.45;;;;;;;;;;5038090;28;20052;-76
2023/01/06 02:18:17;;;;;;;11.43;3.22;;;;;;;;;;5026233;28;20045;-76
2023/01/06 02:20:49;;;;;;;14.95;3.47;;;;;;;;;;5055273;28;20123;-76
2023/01/06 02:23:34;;;;;;;9.80;3.20;;;;;;;;;;5045948;28;20044;-76
2023/01/06 02:26:29;;;;;;;12.50;3.22;;;;;;;;;;5052791;28;20059;-76
2023/01/06 02:29:10;;;;;;;12.90;3.40;;;;;;;;;;5053161;28;20076;-76
2023/01/06 02:31:49;;;;;;;12.90;3.28;;;;;;;;;;5035274;28;20137;-76
2023/01/06 02:34:21;;;;;;;9.88;3.10;;;;;;;;;;5036164;28;20048;-76
2023/01/06 02:36:50;;;;;;;9.52;3.25;;;;;;;;;;5054490;28;20048;-76
2023/01/06 02:39:20;;;;;;;10.38;2.92;;;;;;;;;;5018568;28;20136;-76
2023/01/06 02:42:09;;;;;;;10.95;2.85;;;;;;;;;;5019193;28;20137;-76
2023/01/06 02:44:54;;;;;;;11.70;2.97;;;;;;;;;;5030770;28;20052;-76
2023/01/06 02:47:20;;;;;;;12.95;3.03;;;;;;;;;;5047911;28;20080;-76
2023/01/06 02:49:56;;;;;;;7.75;2.90;;;;;;;;;;5038395;28;20052;-76
2023/01/06 02:52:45;;;;;;;9.07;2.80;;;;;;;;;;5047883;28;20094;-76
2023/01/06 02:55:23;;;;;;;10.65;2.83;;;;;;;;;;5022747;28;20188;-76
2023/01/06 02:57:55;;;;;;;8.90;2.58;;;;;;;;;;5043177;28;20041;-76
2023/01/06 03:00:35;;;;;;;7.57;2.83;;;;;;;;;;5033611;28;20042;-76
2023/01/06 03:03:09;;;;;;;8.25;3.10;;;;;;;;;;5014573;28;20049;-76
2023/01/06 03:05:37;;;;;;;14.27;3.35;;;;;;;;;;5039896;28;20045;-76
2023/01/06 03:08:06;;;;;;;8.93;2.42;;;;;;;;;;5037437;28;20045;-76
2023/01/06 03:10:32;;;;;;;8.85;2.60;;;;;;;;;;5039087;28;20380;-76
2023/01/06 03:12:58;;;;;;;8.50;2.17;;;;;;;;;;5053236;28;20361;-76
2023/01/06 03:15:25;;;;;;;8.38;2.40;;;;;;;;;;5050271;28;20499;-76
2023/01/06 03:17:51;;;;;;;7.22;2.33;;;;;;;;;;5055972;28;20048;-76
2023/01/06 03:20:17;;;;;;;11.52;2.97;;;;;;;;;;5045949;28;20590;-76
2023/01/06 03:22:44;;;;;;;7.65;2.65;;;;;;;;;;5037749;28;20041;-76
2023/01/06 03:25:10;;;;;;;7.03;2.60;;;;;;;;;;5035665;28;20041;-76
2023/01/06 03:27:36;;;;;;;7.47;2.83;;;;;;;;;;5029931;28;20053;-75
2023/01/06 03:30:03;;;;;;;5.38;2.85;;;;;;;;;;5036923;28;20049;-76
2023/01/06 03:32:43;;;;;;;7.18;2.75;;;;;;;;;;5040656;28;20496;-75
2023/01/06 03:35:26;;;;;;;6.05;3.28;;;;;;;;;;5048116;28;20136;-76
2023/01/06 03:38:11;;;;;;;7.03;3.08;;;;;;;;;;5040357;28;20049;-76
2023/01/06 03:40:40;;;;;;;7.22;3.50;;;;;;;;;;5040245;28;20075;-76
2023/01/06 03:43:12;;;;;;;8.38;4.00;;;;;;;;;;5054591;28;20049;-76
2023/01/06 03:45:41;;;;;;;9.98;4.78;;;;;;;;;;5051767;28;20583;-76
2023/01/06 03:48:07;;;;;;;14.57;4.90;;;;;;;;;;5051850;28;20249;-76
2023/01/06 03:50:39;;;;;;;8.27;5.38;;;;;;;;;;5051172;28;20116;-76
2023/01/06 03:53:15;;;;;;;11.38;6.40;;;;;;;;;;5035337;28;20044;-76
2023/01/06 03:55:44;;;;;;;13.27;6.78;;;;;;;;;;5051160;28;20045;-76
2023/01/06 03:58:12;;;;;;;12.32;7.35;;;;;;;;;;5045032;28;20048;-75
2023/01/06 04:00:38;;;;;;;11.65;8.32;;;;;;;;;;5034988;28;20124;-75
2023/01/06 04:03:09;;;;;;;12.75;8.85;;;;;;;;;;5035137;28;20052;-76
2023/01/06 04:05:35;;;;;;;16.35;9.98;;;;;;;;;;5052438;28;20069;-76
2023/01/06 04:08:01;;;;;;;16.38;9.38;;;;;;;;;;5052975;28;20557;-76
2023/01/06 04:10:27;;;;;;;13.35;9.30;;;;;;;;;;5043709;28;20080;-75
2023/01/06 04:12:53;;;;;;;13.07;9.65;;;;;;;;;;5053166;28;20045;-76
2023/01/06 04:15:20;;;;;;;14.45;9.30;;;;;;;;;;5049327;28;20057;-76
2023/01/06 04:17:47;;;;;;;13.98;9.82;;;;;;;;;;5037743;28;20471;-76
2023/01/06 04:20:14;;;;;;;11.93;8.63;;;;;;;;;;5036947;28;20125;-76
2023/01/06 04:22:41;;;;;;;16.42;8.82;;;;;;;;;;5041438;28;20045;-76
2023/01/06 04:25:07;;;;;;;11.32;8.95;;;;;;;;;;5053298;28;20044;-76
2023/01/06 04:27:33;;;;;;;11.85;8.30;;;;;;;;;;5043881;28;20045;-76
2023/01/06 04:30:00;;;;;;;11.20;7.97;;;;;;;;;;5051660;28;20056;-76
2023/01/06 04:32:26;;;;;;;11.57;8.00;;;;;;;;;;5042281;28;20451;-76
2023/01/06 04:34:52;;;;;;;9.88;8.10;;;;;;;;;;5018389;28;20092;-76
2023/01/06 04:37:18;;;;;;;10.35;7.20;;;;;;;;;;5018458;28;20048;-76
2023/01/06 04:39:44;;;;;;;10.32;6.93;;;;;;;;;;5037340;28;20068;-76
2023/01/06 04:42:10;;;;;;;9.65;6.88;;;;;;;;;;5038364;28;20041;-76
2023/01/06 04:44:37;;;;;;;8.55;6.07;;;;;;;;;;5054124;28;20041;-75
2023/01/06 04:47:03;;;;;;;7.85;6.35;;;;;;;;;;5031720;28;20438;-75
2023/01/06 04:49:29;;;;;;;12.30;6.35;;;;;;;;;;5033291;28;20049;-76
2023/01/06 04:51:55;;;;;;;9.15;5.70;;;;;;;;;;5028744;28;20076;-76
2023/01/06 04:54:21;;;;;;;12.93;5.97;;;;;;;;;;5037546;28;20041;-76
2023/01/06 04:56:47;;;;;;;5.28;4.68;;;;;;;;;;5046468;28;20124;-76
2023/01/06 04:59:13;;;;;;;9.93;5.22;;;;;;;;;;5042909;28;20598;-76
2023/01/06 05:01:39;;;;;;;8.00;5.05;;;;;;;;;;5025328;28;20049;-76
2023/01/06 05:04:06;;;;;;;6.60;4.72;;;;;;;;;;5016533;28;20045;-76
2023/01/06 05:06:32;;;;;;;8.80;4.80;;;;;;;;;;5048835;28;20095;-76
2023/01/06 05:08:58;;;;;;;7.28;4.65;;;;;;;;;;5031329;28;20053;-76
2023/01/06 05:11:25;;;;;;;6.60;4.43;;;;;;;;;;5036602;28;20091;-76
2023/01/06 05:13:51;;;;;;;10.13;5.07;;;;;;;;;;5031776;28;20056;-76
2023/01/06 05:16:17;;;;;;;8.07;4.32;;;;;;;;;;5022840;28;20061;-76
2023/01/06 05:18:44;;;;;;;8.27;5.05;;;;;;;;;;5033767;28;20044;-76
2023/01/06 05:21:10;;;;;;;5.50;4.40;;;;;;;;;;5052465;28;20041;-76
2023/01/06 05:23:37;;;;;;;6.93;4.80;;;;;;;;;;5050869;28;20041;-76
2023/01/06 05:26:03;;;;;;;8.57;4.55;;;;;;;;;;5046482;28;20052;-76
2023/01/06 05:28:29;;;;;;;9.23;4.57;;;;;;;;;;5040244;28;20483;-76
2023/01/06 05:30:59;;;;;;;6.45;4.80;;;;;;;;;;5041527;28;20041;-76
2023/01/06 05:33:25;;;;;;;8.27;4.72;;;;;;;;;;5018897;28;20129;-76
2023/01/06 05:35:58;;;;;;;10.32;5.80;;;;;;;;;;5023550;28;20041;-75
2023/01/06 05:38:24;;;;;;;8.10;5.25;;;;;;;;;;5042666;28;20111;-75
2023/01/06 05:40:51;;;;;;;9.25;6.10;;;;;;;;;;5048071;28;20049;-74
2023/01/06 05:43:17;;;;;;;9.85;5.88;;;;;;;;;;5035132;28;20037;-75
2023/01/06 05:45:43;;;;;;;10.73;6.25;;;;;;;;;;5027236;28;20107;-74
2023/01/06 05:48:09;;;;;;;10.40;5.63;;;;;;;;;;5042178;28;20094;-74
2023/01/06 05:50:35;;;;;;;13.73;6.65;;;;;;;;;;5035364;28;20553;-74
2023/01/06 05:53:01;;;;;;;11.68;6.65;;;;;;;;;;5038693;28;20433;-74
2023/01/06 05:55:27;;;;;;;11.07;6.63;;;;;;;;;;5039816;28;20048;-75
2023/01/06 05:57:53;;;;;;;8.77;5.95;;;;;;;;;;5046459;28;20048;-75
2023/01/06 06:00:19;;;;;;;11.25;6.65;;;;;;;;;;5042127;28;20041;-77
2023/01/06 06:02:45;;;;;;;12.18;6.63;;;;;;;;;;5045712;28;20033;-75
2023/01/06 06:05:11;;;;;;;12.05;6.72;;;;;;;;;;5039138;28;20044;-75
2023/01/06 06:07:37;;;;;;;10.10;6.85;;;;;;;;;;5015475;28;20045;-75
2023/01/06 06:10:04;;;;;;;10.65;6.93;;;;;;;;;;5035112;28;20087;-75
2023/01/06 06:12:30;;;;;;;8.73;6.20;;;;;;;;;;5034750;28;20056;-75
2023/01/06 06:14:56;;;;;;;11.18;6.88;;;;;;;;;;5024176;28;20138;-75
2023/01/06 06:17:24;;;;;;;8.60;6.72;;;;;;;;;;5037168;28;20147;-75
2023/01/06 06:19:50;;;;;;;8.15;7.03;;;;;;;;;;5037314;28;20096;-75
2023/01/06 06:22:16;;;;;;;9.75;6.55;;;;;;;;;;5040017;28;20041;-75
2023/01/06 06:24:42;;;;;;;8.50;6.45;;;;;;;;;;5030950;28;20049;-75
2023/01/06 06:27:08;;;;;;;9.52;7.00;;;;;;;;;;5019310;28;20051;-75
2023/01/06 06:29:34;;;;;;;11.35;6.43;;;;;;;;;;5043653;28;20059;-75
2023/01/06 06:32:00;;;;;;;9.25;6.55;;;;;;;;;;5026077;28;20041;-76
2023/01/06 06:34:26;;;;;;;10.10;6.50;;;;;;;;;;5045224;28;20045;-80
2023/01/06 06:36:53;;;;;;;9.55;6.05;;;;;;;;;;5044567;28;20056;-75
2023/01/06 06:39:19;;;;;;;8.70;6.80;;;;;;;;;;5036609;28;20055;-75
2023/01/06 06:41:45;;;;;;;9.60;6.55;;;;;;;;;;5018663;28;20049;-74
2023/01/06 06:44:11;;;;;;;12.13;7.38;;;;;;;;;;5053356;28;20048;-75
2023/01/06 06:46:37;;;;;;;10.82;6.55;;;;;;;;;;5051354;28;20090;-74
2023/01/06 06:49:03;;;;;;;8.43;5.80;;;;;;;;;;5055006;28;20041;-75
2023/01/06 06:51:30;;;;;;;8.00;5.97;;;;;;;;;;5039223;28;20045;-74
2023/01/06 06:53:56;;;;;;;9.57;5.88;;;;;;;;;;5043612;28;20041;-74
2023/01/06 06:56:22;;;;;;;8.85;4.32;;;;;;;;;;5045058;28;20037;-74
2023/01/06 06:58:48;;;;;;;7.35;3.58;;;;;;;;;;5051584;28;20056;-74
2023/01/06 07:01:15;;;;;;;7.68;3.05;;;;;;;;;;5053576;28;20112;-75
2023/01/06 07:03:42;;;;;;;9.88;3.42;;;;;;;;;;5018081;28;20176;-75
2023/01/06 07:06:09;;;;;;;11.90;2.80;;;;;;;;;;5038556;28;20037;-75
2023/01/06 07:08:35;;;;;;;6.47;2.35;;;;;;;;;;5030594;28;20132;-77
2023/01/06 07:11:02;;;;;;;5.65;1.98;;;;;;;;;;5047200;28;20430;-75
2023/01/06 07:13:28;;;;;;;7.20;1.60;;;;;;;;;;5050356;28;20134;-75
2023/01/06 07:15:54;;;;;;;5.22;1.90;;;;;;;;;;5048055;28;20053;-75
2023/01/06 07:18:20;;;;;;;9.48;2.85;;;;;;;;;;5050632;28;20468;-75
2023/01/06 07:20:48;;;;;;;5.55;2.17;;;;;;;;;;5057685;28;20490;-75
2023/01/06 07:23:14;;;;;;;7.25;2.00;;;;;;;;;;5042635;28;20041;-75
2023/01/06 07:25:41;;;;;;;6.50;1.80;;;;;;;;;;5041981;28;20041;-75
2023/01/06 07:28:08;;;;;;;9.48;2.15;;;;;;;;;;5049243;28;20452;-76
2023/01/06 07:30:35;;;;;;;10.10;2.10;;;;;;;;;;5030445;28;20049;-76
2023/01/06 07:33:01;;;;;;;7.55;2.10;;;;;;;;;;5029644;28;20045;-78
2023/01/06 07:35:27;;;;;;;13.20;2.13;;;;;;;;;;5034094;28;20049;-77
2023/01/06 07:37:54;;;;;;;9.30;1.80;;;;;;;;;;5042825;28;20037;-76
2023/01/06 07:40:20;;;;;;;9.55;3.40;;;;;;;;;;5045146;28;20045;-77
2023/01/06 07:42:46;;;;;;;12.43;2.25;;;;;;;;;;5049137;28;20041;-76
2023/01/06 07:45:13;;;;;;;10.07;2.55;;;;;;;;;;5053874;28;20056;-77
2023/01/06 07:47:39;;;;;;;9.85;2.42;;;;;;;;;;5055045;28;20045;-76
2023/01/06 07:50:05;;;;;;;8.00;2.47;;;;;;;;;;5033407;28;20041;-76
2023/01/06 07:52:31;;;;;;;12.32;3.00;;;;;;;;;;5053547;28;20098;-76
2023/01/06 07:54:58;;;;;;;16.20;3.28;;;;;;;;;;5055206;28;20037;-76
2023/01/06 07:57:27;;;;;;;13.35;3.08;;;;;;;;;;5060047;28;20664;-76
2023/01/06 07:59:54;;;;;;;15.02;2.85;;;;;;;;;;5047451;28;20049;-76
2023/01/06 08:02:20;;;;;;;15.63;2.65;;;;;;;;;;5033271;28;20391;-76
2023/01/06 08:04:46;;;;;;;13.27;2.88;;;;;;;;;;5035510;28;20048;-76
2023/01/06 08:07:14;;;;;;;17.67;2.95;;;;;;;;;;5033288;28;20452;-76
2023/01/06 08:09:40;;;;;;;10.13;2.30;;;;;;;;;;5033775;28;20049;-76
2023/01/06 08:12:06;;;;;;;13.77;2.45;;;;;;;;;;5044942;28;20053;-76
2023/01/06 08:14:32;;;;;;;12.57;2.90;;;;;;;;;;5042268;28;20049;-76
2023/01/06 08:16:58;;;;;;;15.82;2.90;;;;;;;;;;5017100;28;20515;-75
2023/01/06 08:19:24;;;;;;;12.85;2.60;;;;;;;;;;5034681;28;20049;-76
2023/01/06 08:21:50;;;;;;;12.02;2.55;;;;;;;;;;5025341;28;20051;-76
2023/01/06 08:24:16;;;;;;;20.02;3.70;;;;;;;;;;5042879;28;20479;-75
2023/01/06 08:26:42;;;;;;;11.20;2.40;;;;;;;;;;5044652;28;20037;-76
2023/01/06 08:29:08;;;;;;;15.93;2.63;;;;;;;;;;5023920;28;20053;-76
2023/01/06 08:31:34;;;;;;;13.07;2.72;;;;;;;;;;5050497;28;20041;-76
2023/01/06 08:34:00;;;;;;;10.77;2.80;;;;;;;;;;5038560;28;20121;-76
2023/01/06 08:36:27;;;;;;;17.75;3.65;;;;;;;;;;5015165;28;20431;-76
2023/01/06 08:38:53;;;;;;;12.27;2.90;;;;;;;;;;5039812;28;20519;-77
2023/01/06 08:41:19;;;;;;;15.07;2.70;;;;;;;;;;5029501;28;20096;-77
2023/01/06 08:43:46;;;;;;;11.55;3.08;;;;;;;;;;5036073;28;20053;-76
2023/01/06 08:46:17;;;;;;;9.55;2.70;;;;;;;;;;5034633;28;20041;-77
2023/01/06 08:48:43;;;;;;;11.93;3.00;;;;;;;;;;5043233;28;20041;-77
2023/01/06 08:51:13;;;;;;;8.50;2.80;;;;;;;;;;5043179;28;20046;-77
2023/01/06 08:53:40;;;;;;;11.63;2.88;;;;;;;;;;5040501;28;20045;-78
2023/01/06 08:56:11;;;;;;;14.75;2.85;;;;;;;;;;5026408;28;20044;-76
2023/01/06 08:58:37;;;;;;;11.30;2.55;;;;;;;;;;5035085;28;20040;-75
2023/01/06 09:01:03;;;;;;;9.77;2.40;;;;;;;;;;5024414;28;20048;-78
2023/01/06 09:03:29;;;;;;;16.15;3.10;;;;;;;;;;5034775;28;20048;-77
2023/01/06 09:05:56;;;;;;;13.18;2.90;;;;;;;;;;5037470;28;20036;-77
2023/01/06 09:08:22;;;;;;;15.73;2.42;;;;;;;;;;5050143;28;20045;-76
2023/01/06 09:10:48;;;;;;;14.65;2.95;;;;;;;;;;5047689;28;20123;-75
2023/01/06 09:13:15;;;;;;;11.60;2.53;;;;;;;;;;5035392;28;20080;-77
2023/01/06 09:15:41;;;;;;;10.52;2.83;;;;;;;;;;5034338;28;20131;-76
2023/01/06 09:18:07;;;;;;;9.07;3.05;;;;;;;;;;5033921;28;20084;-76
2023/01/06 09:20:34;;;;;;;10.38;2.80;;;;;;;;;;5033454;28;20495;-76
2023/01/06 09:23:00;;;;;;;10.95;2.90;;;;;;;;;;5043258;28;20128;-76
2023/01/06 09:25:26;;;;;;;11.75;2.45;;;;;;;;;;5051027;28;20468;-76
2023/01/06 09:27:52;;;;;;;13.25;2.70;;;;;;;;;;5052694;28;20037;-76
2023/01/06 09:30:19;;;;;;;14.00;2.80;;;;;;;;;;5051459;28;20376;-76
2023/01/06 09:32:45;;;;;;;13.90;3.10;;;;;;;;;;5033260;28;20491;-76
2023/01/06 09:35:11;;;;;;;8.95;3.15;;;;;;;;;;5043038;28;20042;-77
2023/01/06 09:37:37;;;;;;;14.45;3.28;;;;;;;;;;5041742;28;20045;-75
2023/01/06 09:40:03;;;;;;;8.77;3.05;;;;;;;;;;5047734;28;20037;-75
2023/01/06 09:42:29;;;;;;;11.50;3.05;;;;;;;;;;5045666;28;20710;-75
2023/01/06 09:44:58;;;;;;;15.18;4.07;;;;;;;;;;5031039;28;20052;-76
2023/01/06 09:47:27;;;;;;;10.65;2.88;;;;;;;;;;5016501;28;20067;-75
2023/01/06 09:49:59;;;;;;;8.20;2.28;;;;;;;;;;5041219;28;20129;-75
2023/01/06 09:52:31;;;;;;;12.35;2.55;;;;;;;;;;5039629;28;20149;-78
2023/01/06 09:55:06;;;;;;;10.05;2.22;;;;;;;;;;5016434;28;20059;-79
2023/01/06 09:57:34;;;;;;;8.27;2.20;;;;;;;;;;5035883;28;20064;-78
2023/01/06 10:00:02;;;;;;;9.85;2.53;;;;;;;;;;5042513;28;20116;-79
2023/01/06 10:02:39;;;;;;;9.70;2.80;;;;;;;;;;5036836;28;20053;-80
2023/01/06 10:05:28;;;;;;;6.55;2.22;;;;;;;;;;5048761;28;20037;-80
2023/01/06 10:08:13;;;;;;;8.18;2.33;;;;;;;;;;5025268;28;20058;-79
2023/01/06 10:10:45;;;;;;;8.73;2.35;;;;;;;;;;5060043;28;20403;-82
2023/01/06 10:13:26;;;;;;;6.70;2.83;;;;;;;;;;5039085;28;20072;-79
2023/01/06 10:16:02;;;;;;;9.63;2.63;;;;;;;;;;5064189;28;20084;-81
2023/01/06 10:18:38;;;;;;;8.80;2.30;;;;;;;;;;5039100;28;20124;-79
2023/01/06 10:21:05;;;;;;;7.25;2.58;;;;;;;;;;5039844;28;20115;-80
2023/01/06 10:23:35;;;;;;;7.43;2.30;;;;;;;;;;5059599;28;20049;-76
2023/01/06 10:26:09;;;;;;;9.43;2.67;;;;;;;;;;5056213;28;20064;-76
2023/01/06 10:28:36;;;;;;;9.27;2.28;;;;;;;;;;5055103;28;20056;-76
2023/01/06 10:31:04;;;;;;;9.27;2.45;;;;;;;;;;5056037;28;20514;-78
2023/01/06 10:33:32;;;;;;;7.85;2.58;;;;;;;;;;5056027;28;20064;-77
2023/01/06 10:35:59;;;;;;;12.90;3.10;;;;;;;;;;5056167;28;20041;-76
2023/01/06 10:38:29;;;;;;;9.60;2.50;;;;;;;;;;5055558;28;20051;-76
2023/01/06 10:41:01;;;;;;;10.68;2.65;;;;;;;;;;5052485;28;20487;-77
2023/01/06 10:43:28;;;;;;;8.63;2.80;;;;;;;;;;5055947;28;20505;-77
2023/01/06 10:45:54;;;;;;;12.68;2.50;;;;;;;;;;5055953;28;20088;-76
2023/01/06 10:48:24;;;;;;;9.50;2.38;;;;;;;;;;5056302;28;20054;-76
2023/01/06 10:50:50;;;;;;;14.07;2.63;;;;;;;;;;5053478;28;20146;-76
2023/01/06 10:53:16;;;;;;;15.75;2.63;;;;;;;;;;5051287;28;20077;-77
2023/01/06 10:55:54;;;;;;;7.15;2.47;;;;;;;;;;5048685;28;20041;-77
2023/01/06 10:58:29;;;;;;;6.40;2.28;;;;;;;;;;5054112;28;20045;-76
2023/01/06 11:00:59;;;;;;;11.77;2.63;;;;;;;;;;5055068;28;20048;-78
2023/01/06 11:03:26;;;;;;;8.65;2.67;;;;;;;;;;5035708;28;20045;-78
2023/01/06 11:05:59;;;;;;;13.82;2.95;;;;;;;;;;5037607;28;20411;-77
2023/01/06 11:08:26;;;;;;;13.25;2.97;;;;;;;;;;5055845;28;20045;-76
2023/01/06 11:10:53;;;;;;;6.20;2.30;;;;;;;;;;5056178;28;20037;-76
2023/01/06 11:13:22;;;;;;;8.68;2.83;;;;;;;;;;5037175;28;20056;-76
2023/01/06 11:15:48;;;;;;;12.50;2.85;;;;;;;;;;5037844;28;20051;-76
2023/01/06 11:18:19;;;;;;;10.88;2.65;;;;;;;;;;5054053;28;20048;-77
2023/01/06 11:20:46;;;;;;;9.80;2.60;;;;;;;;;;5016580;28;20096;-77
2023/01/06 11:23:14;;;;;;;10.07;2.35;;;;;;;;;;5033529;28;20041;-77
2023/01/06 11:25:40;;;;;;;13.88;2.95;;;;;;;;;;5052818;28;20044;-77
2023/01/06 11:28:16;;;;;;;9.63;3.03;;;;;;;;;;5047192;28;20103;-76
2023/01/06 11:30:50;;;;;;;17.15;3.47;;;;;;;;;;5038027;28;20063;-76
2023/01/06 11:33:23;;;;;;;14.07;2.97;;;;;;;;;;5055233;28;20048;-76
2023/01/06 11:35:50;;;;;;;9.63;3.08;;;;;;;;;;5055270;28;20049;-76
2023/01/06 11:38:17;;;;;;;8.23;2.70;;;;;;;;;;5056215;28;20048;-77
2023/01/06 11:40:44;;;;;;;9.75;2.85;;;;;;;;;;5055500;28;20047;-75
2023/01/06 11:43:16;;;;;;;11.52;3.00;;;;;;;;;;5050048;28;20171;-76
2023/01/06 11:46:08;;;;;;;13.45;3.67;;;;;;;;;;5044851;28;20042;-76
2023/01/06 11:48:35;;;;;;;8.77;2.72;;;;;;;;;;5039259;28;20479;-77
2023/01/06 11:51:03;;;;;;;13.05;3.30;;;;;;;;;;5054923;28;20498;-76
2023/01/06 11:53:29;;;;;;;11.57;3.25;;;;;;;;;;5054049;28;20037;-76
2023/01/06 11:55:56;;;;;;;9.95;3.00;;;;;;;;;;5055152;28;20052;-76
2023/01/06 11:58:28;;;;;;;13.70;3.03;;;;;;;;;;5043461;28;20052;-76
2023/01/06 12:00:57;;;;;;;8.52;2.85;;;;;;;;;;5047032;28;20080;-76
2023/01/06 12:03:34;;;;;;;13.43;3.30;;;;;;;;;;5054074;28;20037;-76
2023/01/06 12:06:18;;;;;;;8.85;2.97;;;;;;;;;;5054562;28;20045;-78
2023/01/06 12:08:50;;;;;;;12.23;3.50;;;;;;;;;;5054699;28;20048;-76
2023/01/06 12:11:20;;;;;;;13.60;2.85;;;;;;;;;;5046755;28;20150;-77
2023/01/06 12:13:46;;;;;;;12.75;3.47;;;;;;;;;;5061193;28;20056;-76
2023/01/06 12:16:16;;;;;;;15.43;3.25;;;;;;;;;;5044991;28;20064;-76
2023/01/06 12:18:42;;;;;;;12.52;3.42;;;;;;;;;;5049681;28;20041;-75
2023/01/06 12:21:12;;;;;;;14.35;2.83;;;;;;;;;;5049562;28;20069;-75
2023/01/06 12:23:40;;;;;;;10.60;3.35;;;;;;;;;;5046885;28;20076;-75
2023/01/06 12:26:11;;;;;;;11.50;3.08;;;;;;;;;;5054407;28;20036;-75
2023/01/06 12:28:39;;;;;;;10.25;2.65;;;;;;;;;;5053369;28;20056;-76
2023/01/06 12:31:26;;;;;;;11.73;2.58;;;;;;;;;;5050001;28;20491;-76
2023/01/06 12:34:07;;;;;;;10.73;2.75;;;;;;;;;;5033920;28;20475;-76
2023/01/06 12:36:52;;;;;;;12.50;2.85;;;;;;;;;;5046289;28;20046;-76
2023/01/06 12:39:18;;;;;;;13.45;2.95;;;;;;;;;;5039708;28;20130;-76
2023/01/06 12:41:48;;;;;;;14.45;3.00;;;;;;;;;;5051749;28;20069;-76
2023/01/06 12:44:23;;;;;;;10.07;2.63;;;;;;;;;;5048971;28;20033;-76
2023/01/06 12:47:00;;;;;;;10.97;2.60;;;;;;;;;;5042248;28;20048;-75
2023/01/06 12:49:38;;;;;;;10.18;2.45;;;;;;;;;;5047767;28;20135;-76
2023/01/06 12:52:08;;;;;;;10.60;3.08;;;;;;;;;;5027316;28;20056;-76
2023/01/06 12:54:34;;;;;;;12.13;3.30;;;;;;;;;;5043692;28;20510;-76
2023/01/06 12:57:04;;;;;;;12.25;2.78;;;;;;;;;;5038829;28;20510;-76
2023/01/06 12:59:37;;;;;;;13.98;3.10;;;;;;;;;;5036562;28;20049;-76
2023/01/06 13:02:03;;;;;;;10.80;2.92;;;;;;;;;;5058202;28;20041;-76
2023/01/06 13:04:45;;;;;;;10.95;2.90;;;;;;;;;;5053459;28;20108;-76
2023/01/06 13:07:14;;;;;;;13.73;2.72;;;;;;;;;;5051683;28;20114;-75
2023/01/06 13:10:02;;;;;;;12.13;2.60;;;;;;;;;;5053870;28;20056;-75
2023/01/06 13:12:40;;;;;;;13.73;3.08;;;;;;;;;;5043486;28;20060;-75
2023/01/06 13:15:14;;;;;;;15.30;3.05;;;;;;;;;;5046539;28;20558;-75
2023/01/06 13:17:53;;;;;;;14.38;2.85;;;;;;;;;;5053757;28;20061;-75
2023/01/06 13:20:40;;;;;;;11.57;3.17;;;;;;;;;;5053558;28;20041;-76
2023/01/06 13:23:09;;;;;;;15.57;3.78;;;;;;;;;;5042860;28;20125;-75
2023/01/06 13:25:38;;;;;;;15.05;3.50;;;;;;;;;;5053145;28;20045;-76
2023/01/06 13:28:04;;;;;;;17.25;3.85;;;;;;;;;;5051127;28;20033;-76
2023/01/06 13:30:49;;;;;;;9.88;3.00;;;;;;;;;;5053424;28;20135;-76
2023/01/06 13:33:24;;;;;;;14.10;2.90;;;;;;;;;;5051271;28;20033;-76
2023/01/06 13:36:09;;;;;;;11.80;2.85;;;;;;;;;;5053209;28;20471;-77
2023/01/06 13:38:50;;;;;;;8.18;2.80;;;;;;;;;;5047875;28;20052;-76
2023/01/06 13:41:17;;;;;;;12.43;3.05;;;;;;;;;;5032360;28;20496;-76
2023/01/06 13:43:45;;;;;;;17.50;3.90;;;;;;;;;;5015634;28;20406;-76
2023/01/06 13:46:14;;;;;;;14.45;3.47;;;;;;;;;;5056240;28;20063;-76
2023/01/06 13:48:42;;;;;;;10.18;2.90;;;;;;;;;;5057447;28;20655;-75
2023/01/06 13:51:10;;;;;;;13.30;3.17;;;;;;;;;;5057415;28;20471;-75
2023/01/06 13:53:37;;;;;;;11.95;2.95;;;;;;;;;;5053953;28;20045;-75
2023/01/06 13:56:12;;;;;;;17.30;3.40;;;;;;;;;;5037121;28;20091;-75
2023/01/06 13:58:39;;;;;;;13.77;2.95;;;;;;;;;;5052310;28;20116;-75
2023/01/06 14:01:05;;;;;;;7.93;3.05;;;;;;;;;;5057069;28;20125;-75
2023/01/06 14:03:32;;;;;;;13.40;2.90;;;;;;;;;;5057020;28;20094;-75
2023/01/06 14:05:58;;;;;;;10.10;2.95;;;;;;;;;;5056508;28;20464;-75
2023/01/06 14:08:26;;;;;;;15.77;3.60;;;;;;;;;;5052503;28;20495;-75
2023/01/06 14:11:02;;;;;;;13.50;3.42;;;;;;;;;;5056906;28;20037;-76
2023/01/06 14:13:54;;;;;;;13.80;3.83;;;;;;;;;;5057175;28;20048;-75
2023/01/06 14:16:22;;;;;;;10.85;3.22;;;;;;;;;;5050562;28;20116;-75
2023/01/06 14:19:03;;;;;;;10.60;3.33;;;;;;;;;;5055313;28;20051;-76
2023/01/06 14:21:30;;;;;;;14.10;3.92;;;;;;;;;;5056484;28;20070;-76
2023/01/06 14:24:01;;;;;;;15.45;3.30;;;;;;;;;;5021301;28;20521;-76
2023/01/06 14:26:46;;;;;;;14.23;3.20;;;;;;;;;;5036798;28;20048;-76
2023/01/06 14:29:30;;;;;;;14.18;3.22;;;;;;;;;;5034255;28;20381;-76
2023/01/06 14:31:56;;;;;;;11.60;2.97;;;;;;;;;;5020225;28;20053;-76
2023/01/06 14:34:23;;;;;;;13.00;3.45;;;;;;;;;;5052028;28;20091;-77
2023/01/06 14:36:50;;;;;;;11.73;2.90;;;;;;;;;;5055113;28;20365;-77
2023/01/06 14:39:22;;;;;;;12.32;3.25;;;;;;;;;;5055300;28;20068;-77
2023/01/06 14:41:54;;;;;;;11.10;2.88;;;;;;;;;;5054966;28;20082;-76
2023/01/06 14:44:29;;;;;;;11.40;2.65;;;;;;;;;;5046208;28;20567;-77
2023/01/06 14:46:57;;;;;;;8.90;2.80;;;;;;;;;;5043223;28;20544;-76
2023/01/06 14:49:34;;;;;;;18.60;4.60;;;;;;;;;;5048181;28;20383;-76